Time,TemperatureF,DewpointF,PressureIn,WindDirection,WindDirectionDegrees,WindSpeedMPH,WindSpeedGustMPH,Humidity,HourlyPrecipIn,Conditions,Clouds,dailyrainin,SoftwareType,DateUTC
2015-08-02 00:07:00,62.2,55.3,29.95,SW,225,0.0,0.0,78,0.00,,,0.00,open2300-1.11,2015-08-02 07:07:00,
2015-08-02 00:22:00,62.1,55.5,29.94,NW,315,0.0,0.0,79,0.00,,,0.00,open2300-1.11,2015-08-02 07:22:00,
2015-08-02 00:37:00,61.5,55.3,29.94,NW,315,0.0,0.0,80,0.00,,,0.00,open2300-1.11,2015-08-02 07:37:00,
2015-08-02 00:52:00,61.5,55.7,29.94,NW,315,0.0,0.0,81,0.00,,,0.00,open2300-1.11,2015-08-02 07:52:00,
2015-08-02 01:07:00,62.1,56.1,29.94,SSW,202,0.0,0.0,81,0.00,,,0.00,open2300-1.11,2015-08-02 08:07:00,
2015-08-02 01:22:00,62.1,55.8,29.94,NW,315,0.0,0.0,80,0.00,,,0.00,open2300-1.11,2015-08-02 08:22:00,
2015-08-02 01:37:00,62.1,55.8,29.94,WSW,247,0.0,0.0,80,0.00,,,0.00,open2300-1.11,2015-08-02 08:37:00,
2015-08-02 01:52:00,62.1,55.5,29.94,WNW,292,0.0,0.0,79,0.00,,,0.00,open2300-1.11,2015-08-02 08:52:00,
2015-08-02 02:07:00,62.1,55.5,29.94,WSW,247,0.0,0.0,79,0.00,,,0.00,open2300-1.11,2015-08-02 09:07:00,
2015-08-02 02:22:00,62.1,55.5,29.94,NNW,337,0.0,0.0,79,0.00,,,0.00,open2300-1.11,2015-08-02 09:22:00,
2015-08-02 02:37:00,62.1,55.5,29.94,SSW,202,0.0,0.0,79,0.00,,,0.00,open2300-1.11,2015-08-02 09:37:00,
2015-08-02 02:52:00,62.2,55.6,29.94,WSW,247,0.0,0.0,79,0.00,,,0.00,open2300-1.11,2015-08-02 09:52:00,
2015-08-02 03:07:00,62.1,55.5,29.94,WSW,247,0.0,0.0,79,0.00,,,0.00,open2300-1.11,2015-08-02 10:07:00,
2015-08-02 03:22:00,62.1,55.5,29.94,WSW,247,0.0,0.0,79,0.00,,,0.00,open2300-1.11,2015-08-02 10:22:00,
2015-08-02 03:37:00,61.9,55.3,29.94,WNW,292,0.0,0.0,79,0.00,,,0.00,open2300-1.11,2015-08-02 10:37:00,
2015-08-02 03:52:00,62.1,55.1,29.94,SW,225,0.0,0.0,78,0.00,,,0.00,open2300-1.11,2015-08-02 10:52:00,
2015-08-02 04:07:00,61.9,54.9,29.94,North,0,0.0,0.0,78,0.00,,,0.00,open2300-1.11,2015-08-02 11:07:00,
2015-08-02 04:22:00,61.7,55.1,29.93,SW,225,0.0,0.0,79,0.00,,,0.00,open2300-1.11,2015-08-02 11:22:00,
2015-08-02 04:37:00,61.7,55.1,29.93,WSW,247,0.0,0.0,79,0.00,,,0.00,open2300-1.11,2015-08-02 11:37:00,
2015-08-02 04:52:00,61.7,55.1,29.93,SSW,202,0.0,0.0,79,0.00,,,0.00,open2300-1.11,2015-08-02 11:52:00,
2015-08-02 05:07:00,61.5,55.3,29.93,WSW,247,0.0,0.0,80,0.00,,,0.00,open2300-1.11,2015-08-02 12:07:00,
2015-08-02 05:22:00,61.3,55.2,29.93,WSW,247,0.0,0.0,80,0.00,,,0.00,open2300-1.11,2015-08-02 12:22:00,
2015-08-02 05:37:00,61.2,55.0,29.93,SW,225,0.0,0.0,80,0.00,,,0.00,open2300-1.11,2015-08-02 12:37:00,
2015-08-02 05:52:00,61.2,55.0,29.93,SW,225,0.0,0.0,80,0.00,,,0.00,open2300-1.11,2015-08-02 12:52:00,
2015-08-02 06:07:00,61.2,55.0,29.93,SW,225,0.0,0.0,80,0.00,,,0.00,open2300-1.11,2015-08-02 13:07:00,
2015-08-02 06:22:00,61.2,55.3,29.94,SW,225,0.0,0.0,81,0.00,,,0.00,open2300-1.11,2015-08-02 13:22:00,
2015-08-02 06:37:00,61.2,55.7,29.95,WSW,247,0.0,0.0,82,0.00,,,0.00,open2300-1.11,2015-08-02 13:37:00,
2015-08-02 06:52:00,61.2,55.3,29.95,WSW,247,0.0,0.0,81,0.00,,,0.00,open2300-1.11,2015-08-02 13:52:00,
2015-08-02 07:07:00,61.3,55.5,29.95,WSW,247,0.0,0.0,81,0.00,,,0.00,open2300-1.11,2015-08-02 14:07:00,
2015-08-02 07:22:00,61.5,55.7,29.96,SSW,202,0.0,0.0,81,0.00,,,0.00,open2300-1.11,2015-08-02 14:22:00,
2015-08-02 07:37:00,61.5,55.7,29.96,SW,225,0.0,0.0,81,0.00,,,0.00,open2300-1.11,2015-08-02 14:37:00,
2015-08-02 07:52:00,61.5,55.3,29.96,SW,225,0.0,0.0,80,0.00,,,0.00,open2300-1.11,2015-08-02 14:52:00,
2015-08-02 08:07:00,61.5,55.3,29.96,SW,225,0.0,0.0,80,0.00,,,0.00,open2300-1.11,2015-08-02 15:07:00,
2015-08-02 08:22:00,62.1,55.1,29.97,WSW,247,0.0,0.0,78,0.00,,,0.00,open2300-1.11,2015-08-02 15:22:00,
2015-08-02 08:37:00,62.1,54.0,29.97,SW,225,0.0,0.0,75,0.00,,,0.00,open2300-1.11,2015-08-02 15:37:00,
2015-08-02 08:52:00,62.8,54.7,29.97,WSW,247,0.0,0.0,75,0.00,,,0.00,open2300-1.11,2015-08-02 15:52:00,
2015-08-02 09:07:00,63.0,54.1,29.98,SW,225,0.0,0.0,73,0.00,,,0.00,open2300-1.11,2015-08-02 16:07:00,
2015-08-02 09:22:00,63.3,54.1,29.98,WNW,292,0.0,0.0,72,0.00,,,0.00,open2300-1.11,2015-08-02 16:22:00,
2015-08-02 09:37:00,63.9,54.0,29.98,SW,225,0.0,0.0,70,0.00,,,0.00,open2300-1.11,2015-08-02 16:37:00,
2015-08-02 09:52:00,63.9,54.0,29.98,SW,225,0.0,0.0,70,0.00,,,0.00,open2300-1.11,2015-08-02 16:52:00,
2015-08-02 10:07:00,65.1,55.5,29.98,SW,225,0.0,0.0,71,0.00,,,0.00,open2300-1.11,2015-08-02 17:07:00,
2015-08-02 10:22:00,65.1,55.2,29.97,SW,225,0.0,0.0,70,0.00,,,0.00,open2300-1.11,2015-08-02 17:22:00,
2015-08-02 10:37:00,65.1,53.4,29.97,SW,225,0.0,0.0,66,0.00,,,0.00,open2300-1.11,2015-08-02 17:37:00,
2015-08-02 10:52:00,66.9,55.2,29.98,SW,225,0.0,0.0,66,0.00,,,0.00,open2300-1.11,2015-08-02 17:52:00,
2015-08-02 11:07:00,66.9,53.0,29.97,SW,225,0.0,0.0,61,0.00,,,0.00,open2300-1.11,2015-08-02 18:07:00,
2015-08-02 11:22:00,67.5,54.0,29.97,SW,225,0.0,0.0,62,0.00,,,0.00,open2300-1.11,2015-08-02 18:22:00,
2015-08-02 11:37:00,69.1,52.7,29.97,WSW,247,0.0,0.0,56,0.00,,,0.00,open2300-1.11,2015-08-02 18:37:00,
2015-08-02 11:52:00,71.2,52.7,29.97,SSW,202,0.0,0.0,52,0.00,,,0.00,open2300-1.11,2015-08-02 18:52:00,
2015-08-02 12:07:00,72.3,52.0,29.97,WSW,247,0.0,0.0,49,0.00,,,0.00,open2300-1.11,2015-08-02 19:07:00,
2015-08-02 12:22:00,72.9,51.3,29.97,SW,225,0.0,0.0,47,0.00,,,0.00,open2300-1.11,2015-08-02 19:22:00,
2015-08-02 12:37:00,75.4,51.3,29.96,NNW,337,0.0,0.0,43,0.00,,,0.00,open2300-1.11,2015-08-02 19:37:00,
2015-08-02 12:52:00,74.7,50.6,29.96,SSW,202,0.0,0.0,43,0.00,,,0.00,open2300-1.11,2015-08-02 19:52:00,
2015-08-02 13:07:00,74.8,50.8,29.95,SSW,202,0.0,0.0,43,0.00,,,0.00,open2300-1.11,2015-08-02 20:07:00,
2015-08-02 13:22:00,75.4,50.7,29.95,WNW,292,0.0,0.0,42,0.00,,,0.00,open2300-1.11,2015-08-02 20:22:00,
2015-08-02 13:37:00,74.3,49.7,29.95,SW,225,0.0,0.0,42,0.00,,,0.00,open2300-1.11,2015-08-02 20:37:00,
2015-08-02 13:52:00,75.6,50.8,29.95,NW,315,0.0,0.0,42,0.00,,,0.00,open2300-1.11,2015-08-02 20:52:00,
2015-08-02 14:07:00,76.3,49.5,29.94,SW,225,0.0,0.0,39,0.00,,,0.00,open2300-1.11,2015-08-02 21:07:00,
2015-08-02 14:22:00,76.6,49.1,29.94,WSW,247,0.0,0.0,38,0.00,,,0.00,open2300-1.11,2015-08-02 21:22:00,
2015-08-02 14:37:00,77.7,50.0,29.93,WSW,247,0.0,0.0,38,0.00,,,0.00,open2300-1.11,2015-08-02 21:37:00,
2015-08-02 14:52:00,78.3,47.4,29.93,SW,225,0.0,0.0,34,0.00,,,0.00,open2300-1.11,2015-08-02 21:52:00,
2015-08-02 15:07:00,77.4,47.4,29.92,SW,225,0.0,0.0,35,0.00,,,0.00,open2300-1.11,2015-08-02 22:07:00,
2015-08-02 15:22:00,76.1,47.8,29.92,NNW,337,0.0,0.0,37,0.00,,,0.00,open2300-1.11,2015-08-02 22:22:00,
2015-08-02 15:37:00,78.1,49.6,29.91,NNE,22,0.0,0.0,37,0.00,,,0.00,open2300-1.11,2015-08-02 22:37:00,
2015-08-02 15:52:00,76.1,47.8,29.91,SW,225,0.0,0.0,37,0.00,,,0.00,open2300-1.11,2015-08-02 22:52:00,
2015-08-02 16:07:00,77.9,47.9,29.91,West,270,0.0,0.0,35,0.00,,,0.00,open2300-1.11,2015-08-02 23:07:00,
2015-08-02 16:22:00,78.3,48.2,29.90,NNW,337,0.0,0.0,35,0.00,,,0.00,open2300-1.11,2015-08-02 23:22:00,
2015-08-02 16:37:00,77.2,48.8,29.90,SW,225,0.0,0.0,37,0.00,,,0.00,open2300-1.11,2015-08-02 23:37:00,
2015-08-02 16:52:00,77.0,49.1,29.90,WSW,247,0.0,0.0,38,0.00,,,0.00,open2300-1.11,2015-08-02 23:52:00,
2015-08-02 17:07:00,75.7,49.8,29.90,SSW,202,0.0,0.0,40,0.00,,,0.00,open2300-1.11,2015-08-03 00:07:00,
2015-08-02 17:22:00,74.8,49.0,29.90,WSW,247,0.0,0.0,40,0.00,,,0.00,open2300-1.11,2015-08-03 00:22:00,
2015-08-02 17:37:00,75.0,49.7,29.90,WSW,247,0.0,0.0,41,0.00,,,0.00,open2300-1.11,2015-08-03 00:37:00,